createdAt,value
2023-11-07T00:01:06.738Z,9.36
2023-11-07T00:04:01.461Z,9.37
2023-11-07T00:06:33.728Z,9.35
2023-11-07T00:09:06.202Z,9.36
2023-11-07T00:11:39.667Z,9.40
2023-11-07T00:14:11.923Z,9.38
2023-11-07T00:16:43.997Z,9.37
2023-11-07T00:19:14.456Z,9.31
2023-11-07T00:21:46.620Z,9.30
2023-11-07T00:24:19.260Z,9.29
2023-11-07T00:26:52.580Z,9.32
2023-11-07T00:29:26.649Z,9.34
2023-11-07T00:32:01.430Z,9.34
2023-11-07T00:34:35.685Z,9.34
2023-11-07T00:37:08.487Z,9.33
2023-11-07T00:39:40.895Z,9.34
2023-11-07T00:42:14.190Z,9.35
2023-11-07T00:44:47.563Z,9.36
2023-11-07T00:47:22.515Z,9.37
2023-11-07T00:49:57.438Z,9.37
2023-11-07T00:52:31.103Z,9.37
2023-11-07T00:55:06.272Z,9.38
2023-11-07T00:57:40.995Z,9.37
2023-11-07T01:00:16.474Z,9.39
2023-11-07T01:02:57.032Z,9.38
2023-11-07T01:05:32.075Z,9.35
2023-11-07T01:08:07.019Z,9.35
2023-11-07T01:10:40.481Z,9.36
2023-11-07T01:13:13.782Z,9.40
2023-11-07T01:15:47.951Z,9.40
2023-11-07T01:18:31.554Z,9.34
2023-11-07T01:21:08.925Z,9.36
2023-11-07T01:23:45.586Z,9.36
2023-11-07T01:26:21.375Z,9.42
2023-11-07T01:28:58.044Z,9.39
2023-11-07T01:31:33.313Z,9.40
2023-11-07T01:34:06.911Z,9.40
2023-11-07T01:36:41.619Z,9.42
2023-11-07T01:39:23.932Z,9.47
2023-11-07T01:41:59.980Z,9.47
2023-11-07T01:44:43.928Z,9.43
2023-11-07T01:47:24.608Z,9.47
2023-11-07T01:50:16.053Z,9.48
2023-11-07T01:52:48.910Z,9.48
2023-11-07T01:55:26.273Z,9.45
2023-11-07T01:58:11.436Z,9.47
2023-11-07T02:00:57.988Z,9.49
2023-11-07T02:03:37.637Z,9.50
2023-11-07T02:06:11.933Z,9.57
2023-11-07T02:08:44.813Z,9.57
2023-11-07T02:11:25.675Z,9.58
2023-11-07T02:13:58.551Z,9.58
2023-11-07T02:16:31.751Z,9.53
2023-11-07T02:19:03.984Z,9.55
2023-11-07T02:21:37.724Z,9.60
2023-11-07T02:24:12.082Z,9.57
2023-11-07T02:26:44.934Z,9.59
2023-11-07T02:29:16.897Z,9.58
2023-11-07T02:31:48.670Z,9.59
2023-11-07T02:34:21.117Z,9.60
2023-11-07T02:36:53.419Z,9.56
2023-11-07T02:39:25.624Z,9.56
2023-11-07T02:41:57.713Z,9.47
2023-11-07T02:44:29.799Z,9.45
2023-11-07T02:47:01.877Z,9.48
2023-11-07T02:49:33.941Z,9.43
2023-11-07T02:52:06.457Z,9.39
2023-11-07T02:54:38.752Z,9.32
2023-11-07T02:57:11.454Z,9.34
2023-11-07T02:59:46.335Z,9.31
2023-11-07T03:02:19.021Z,9.36
2023-11-07T03:04:50.940Z,9.35
2023-11-07T03:07:23.623Z,9.39
2023-11-07T03:09:55.583Z,9.41
2023-11-07T03:12:27.464Z,9.41
2023-11-07T03:15:00.527Z,9.40
2023-11-07T03:17:32.716Z,9.35
2023-11-07T03:20:07.845Z,9.32
2023-11-07T03:22:41.929Z,9.31
2023-11-07T03:25:13.752Z,9.35
2023-11-07T03:27:45.616Z,9.32
2023-11-07T03:30:17.579Z,9.30
2023-11-07T03:32:47.963Z,9.27
2023-11-07T03:35:21.202Z,9.23
2023-11-07T03:37:53.270Z,9.16
2023-11-07T03:40:25.001Z,9.17
2023-11-07T03:42:56.925Z,9.12
2023-11-07T03:45:31.104Z,9.14
2023-11-07T03:48:03.000Z,9.11
2023-11-07T03:50:35.227Z,9.06
2023-11-07T03:53:07.551Z,9.03
2023-11-07T03:55:39.361Z,9.02
2023-11-07T03:58:11.269Z,9.02
2023-11-07T04:00:44.658Z,8.99
2023-11-07T04:03:16.895Z,8.98
2023-11-07T04:05:49.060Z,8.93
2023-11-07T04:08:20.926Z,8.98
2023-11-07T04:10:52.860Z,9.01
2023-11-07T04:13:24.761Z,9.00
2023-11-07T04:15:58.110Z,9.02
2023-11-07T04:18:30.138Z,9.02
2023-11-07T04:21:00.607Z,8.99
2023-11-07T04:23:32.559Z,8.99
2023-11-07T04:26:04.554Z,9.00
2023-11-07T04:28:35.229Z,9.02
2023-11-07T04:31:09.961Z,9.02
2023-11-07T04:33:43.156Z,8.98
2023-11-07T04:36:17.787Z,9.00
2023-11-07T04:38:49.763Z,9.01
2023-11-07T04:41:20.063Z,8.97
2023-11-07T04:43:52.051Z,8.93
2023-11-07T04:46:23.841Z,8.92
2023-11-07T04:48:56.597Z,8.89
2023-11-07T04:51:28.637Z,8.85
2023-11-07T04:54:00.453Z,8.79
2023-11-07T04:56:32.287Z,8.76
2023-11-07T04:59:04.241Z,8.71
2023-11-07T05:01:35.950Z,8.69
2023-11-07T05:04:08.851Z,8.68
2023-11-07T05:06:40.725Z,8.69
2023-11-07T05:09:13.902Z,8.66
2023-11-07T05:11:45.876Z,8.57
2023-11-07T05:14:20.459Z,8.56
2023-11-07T05:16:57.195Z,8.56
2023-11-07T05:19:29.047Z,8.56
2023-11-07T05:22:01.210Z,8.61
2023-11-07T05:24:33.005Z,8.61
2023-11-07T05:27:05.024Z,8.61
2023-11-07T05:29:35.791Z,8.63
2023-11-07T05:32:09.296Z,8.67
2023-11-07T05:34:41.420Z,8.69
2023-11-07T05:37:13.488Z,8.72
2023-11-07T05:39:45.569Z,8.78
2023-11-07T05:42:17.432Z,8.81
2023-11-07T05:44:49.164Z,8.84
2023-11-07T05:47:21.183Z,8.78
2023-11-07T05:49:52.565Z,8.74
2023-11-07T05:52:24.893Z,8.79
2023-11-07T05:54:56.665Z,8.78
2023-11-07T05:57:28.436Z,8.81
2023-11-07T06:00:01.535Z,8.78
2023-11-07T06:02:44.428Z,8.80
2023-11-07T06:05:16.458Z,8.83
2023-11-07T06:07:49.875Z,8.88
2023-11-07T06:10:21.797Z,8.91
2023-11-07T06:12:52.145Z,8.87
2023-11-07T06:15:31.146Z,8.88
2023-11-07T06:18:04.768Z,8.87
2023-11-07T06:20:36.693Z,8.90
2023-11-07T06:23:07.079Z,8.89
2023-11-07T06:25:38.828Z,8.90
2023-11-07T06:28:10.879Z,8.89
2023-11-07T06:30:42.966Z,8.92
2023-11-07T06:33:13.732Z,8.94
2023-11-07T06:35:45.973Z,8.94
2023-11-07T06:38:18.737Z,8.93
2023-11-07T06:40:50.630Z,8.87
2023-11-07T06:43:23.469Z,8.88
2023-11-07T06:45:55.212Z,8.90
2023-11-07T06:48:27.395Z,8.89
2023-11-07T06:50:59.546Z,8.91
2023-11-07T06:53:31.415Z,8.96
2023-11-07T06:56:03.119Z,9.00
2023-11-07T06:58:34.939Z,9.01
2023-11-07T07:01:07.526Z,8.97
2023-11-07T07:03:40.304Z,8.98
2023-11-07T07:06:13.707Z,8.92
2023-11-07T07:08:45.556Z,8.91
2023-11-07T07:11:17.275Z,8.90
2023-11-07T07:13:49.170Z,8.93
2023-11-07T07:16:24.237Z,8.89
2023-11-07T07:18:56.119Z,8.89
2023-11-07T07:21:28.570Z,8.91
2023-11-07T07:24:00.283Z,8.95
2023-11-07T07:26:32.169Z,8.94
2023-11-07T07:29:05.025Z,8.93
2023-11-07T07:31:38.635Z,8.94
2023-11-07T07:34:10.623Z,9.02
2023-11-07T07:36:45.605Z,9.04
2023-11-07T07:39:31.475Z,9.10
2023-11-07T07:42:12.655Z,9.16
2023-11-07T07:44:44.390Z,9.22
2023-11-07T07:47:16.829Z,9.30
2023-11-07T07:49:49.198Z,9.35
2023-11-07T07:52:33.292Z,9.35
2023-11-07T07:55:12.706Z,9.36
2023-11-07T07:57:49.245Z,9.43
2023-11-07T08:00:25.742Z,9.49
2023-11-07T08:02:57.809Z,9.48
2023-11-07T08:05:32.725Z,9.51
2023-11-07T08:08:04.471Z,9.51
2023-11-07T08:10:36.800Z,9.55
2023-11-07T08:13:11.659Z,9.60
2023-11-07T08:15:44.306Z,9.64
2023-11-07T08:18:17.398Z,9.64
2023-11-07T08:20:51.762Z,9.64
2023-11-07T08:23:23.810Z,9.67
2023-11-07T08:25:56.135Z,9.63
2023-11-07T08:28:30.019Z,9.60
2023-11-07T08:31:02.038Z,9.53
2023-11-07T08:33:32.498Z,9.47
2023-11-07T08:36:04.453Z,9.42
2023-11-07T08:38:36.584Z,9.39
2023-11-07T08:41:08.696Z,9.39
2023-11-07T08:43:40.872Z,9.32
2023-11-07T08:46:12.921Z,9.36
2023-11-07T08:48:46.019Z,9.35
2023-11-07T08:51:18.026Z,9.39
2023-11-07T08:53:50.637Z,9.44
2023-11-07T08:56:25.913Z,9.40
2023-11-07T08:58:57.660Z,9.44
2023-11-07T09:01:30.628Z,9.51
2023-11-07T09:04:18.149Z,9.58
2023-11-07T09:06:50.297Z,9.67
2023-11-07T09:09:25.177Z,9.76
2023-11-07T09:11:59.463Z,9.83
2023-11-07T09:14:31.646Z,9.91
2023-11-07T09:17:03.529Z,9.93
2023-11-07T09:19:35.355Z,9.93
2023-11-07T09:22:08.691Z,9.93
2023-11-07T09:24:41.042Z,9.94
2023-11-07T09:27:11.557Z,9.96
2023-11-07T09:29:43.579Z,10.00
2023-11-07T09:32:15.644Z,10.04
2023-11-07T09:34:47.580Z,10.01
2023-11-07T09:37:19.589Z,9.93
2023-11-07T09:39:49.840Z,9.96
2023-11-07T09:42:21.683Z,9.93
2023-11-07T09:44:53.697Z,9.98
2023-11-07T09:47:25.161Z,10.03
2023-11-07T09:49:57.135Z,9.97
2023-11-07T09:52:28.022Z,9.95
2023-11-07T09:55:03.959Z,9.93
2023-11-07T09:57:37.808Z,9.91
2023-11-07T10:00:12.729Z,9.92
2023-11-07T10:02:46.273Z,9.96
2023-11-07T10:05:20.534Z,10.00
2023-11-07T10:07:53.726Z,9.97
2023-11-07T10:10:26.021Z,9.99
2023-11-07T10:13:12.045Z,10.05
2023-11-07T10:15:44.110Z,10.06
2023-11-07T10:18:14.606Z,10.06
2023-11-07T10:20:56.501Z,10.06
2023-11-07T10:23:28.382Z,10.08
2023-11-07T10:26:14.658Z,10.05
2023-11-07T10:28:46.581Z,10.06
2023-11-07T10:31:24.625Z,10.07
2023-11-07T10:34:15.405Z,10.12
2023-11-07T10:36:46.102Z,10.03
2023-11-07T10:39:19.266Z,10.02
2023-11-07T10:41:51.098Z,10.07
2023-11-07T10:44:30.493Z,10.08
2023-11-07T10:47:04.436Z,10.10
2023-11-07T10:49:38.326Z,10.11
2023-11-07T10:52:11.349Z,10.09
2023-11-07T10:54:43.215Z,10.16
2023-11-07T10:57:22.769Z,10.17
2023-11-07T11:00:06.905Z,10.19
2023-11-07T11:02:42.469Z,10.22
2023-11-07T11:05:17.792Z,10.27
2023-11-07T11:07:54.076Z,10.29
2023-11-07T11:10:29.772Z,10.40
2023-11-07T11:13:03.409Z,10.47
2023-11-07T11:15:36.577Z,10.53
2023-11-07T11:18:12.494Z,10.61
2023-11-07T11:20:54.755Z,10.73
2023-11-07T11:23:37.359Z,10.84
2023-11-07T11:26:22.576Z,10.92
2023-11-07T11:28:54.410Z,11.04
2023-11-07T11:31:27.620Z,11.08
2023-11-07T11:34:27.657Z,11.15
2023-11-07T11:37:03.332Z,11.20
2023-11-07T11:39:50.605Z,11.21
2023-11-07T11:42:22.507Z,11.27
2023-11-07T11:45:40.673Z,11.31
2023-11-07T11:48:19.584Z,11.41
2023-11-07T11:51:28.568Z,11.46
2023-11-07T11:54:01.324Z,11.42
2023-11-07T11:56:35.685Z,11.42
2023-11-07T11:59:12.700Z,11.44
2023-11-07T12:01:55.791Z,11.41
2023-11-07T12:04:35.295Z,11.34
2023-11-07T12:07:24.137Z,11.27
2023-11-07T12:09:59.209Z,11.27
2023-11-07T12:12:31.797Z,11.30
2023-11-07T12:15:04.949Z,11.32
2023-11-07T12:17:48.610Z,11.32
2023-11-07T12:20:21.575Z,11.34
2023-11-07T12:22:53.790Z,11.37
2023-11-07T12:25:26.494Z,11.32
2023-11-07T12:28:07.797Z,11.30
2023-11-07T12:30:40.890Z,11.28
2023-11-07T12:33:13.088Z,11.29
2023-11-07T12:35:50.464Z,11.30
2023-11-07T12:38:23.206Z,11.33
2023-11-07T12:40:55.869Z,11.36
2023-11-07T12:43:44.076Z,11.39
2023-11-07T12:46:18.627Z,11.42
2023-11-07T12:48:54.685Z,11.43
2023-11-07T12:51:26.774Z,11.51
2023-11-07T12:53:57.210Z,11.53
2023-11-07T12:56:29.849Z,11.54
2023-11-07T12:59:14.837Z,11.51
2023-11-07T13:01:49.137Z,11.48
2023-11-07T13:04:22.117Z,11.46
2023-11-07T13:06:58.502Z,11.47
2023-11-07T13:09:32.770Z,11.47
2023-11-07T13:12:13.243Z,11.44
2023-11-07T13:14:46.206Z,11.44
2023-11-07T13:17:18.090Z,11.43
2023-11-07T13:19:51.996Z,11.34
2023-11-07T13:22:24.885Z,11.25
2023-11-07T13:24:57.033Z,11.17
2023-11-07T13:27:28.955Z,11.14
2023-11-07T13:29:59.255Z,11.14
2023-11-07T13:32:31.762Z,11.19
2023-11-07T13:35:04.719Z,11.16
2023-11-07T13:37:37.539Z,11.10
2023-11-07T13:40:11.708Z,11.11
2023-11-07T13:42:44.544Z,11.11
2023-11-07T13:45:16.770Z,11.01
2023-11-07T13:47:48.787Z,10.88
2023-11-07T13:50:20.889Z,10.80
2023-11-07T13:52:57.808Z,10.80
2023-11-07T13:55:30.317Z,10.69
2023-11-07T13:58:03.686Z,10.55
2023-11-07T14:00:35.919Z,10.47
2023-11-07T14:03:08.791Z,10.43
2023-11-07T14:05:41.368Z,10.47
2023-11-07T14:08:13.216Z,10.45
2023-11-07T14:10:46.397Z,10.44
2023-11-07T14:13:19.891Z,10.42
2023-11-07T14:15:53.428Z,10.35
2023-11-07T14:18:27.937Z,10.35
2023-11-07T14:21:03.865Z,10.32
2023-11-07T14:23:36.857Z,10.32
2023-11-07T14:26:10.376Z,10.30
2023-11-07T14:31:21.218Z,10.30
2023-11-07T14:33:53.984Z,10.33
2023-11-07T14:36:25.926Z,10.39
2023-11-07T14:38:58.688Z,10.42
2023-11-07T14:41:30.665Z,10.39
2023-11-07T14:44:00.856Z,10.40
2023-11-07T14:46:36.449Z,10.43
2023-11-07T14:49:09.287Z,10.45
2023-11-07T14:51:41.205Z,10.46
2023-11-07T14:54:15.303Z,10.50
2023-11-07T14:56:57.814Z,10.52
2023-11-07T14:59:35.967Z,10.53
2023-11-07T15:02:14.761Z,10.54
2023-11-07T15:04:54.725Z,10.60
2023-11-07T15:07:26.553Z,10.56
2023-11-07T15:09:58.600Z,10.52
2023-11-07T15:12:30.443Z,10.51
2023-11-07T15:15:02.363Z,10.48
2023-11-07T15:17:32.666Z,10.41
2023-11-07T15:20:04.985Z,10.33
2023-11-07T15:22:36.764Z,10.21
2023-11-07T15:25:13.153Z,10.11
2023-11-07T15:27:46.460Z,10.04
2023-11-07T15:30:18.847Z,9.97
2023-11-07T15:32:50.910Z,9.94
2023-11-07T15:35:21.112Z,9.89
2023-11-07T15:37:52.793Z,9.88
2023-11-07T15:40:24.575Z,9.77
2023-11-07T15:42:57.424Z,9.68
2023-11-07T15:45:32.497Z,9.66
2023-11-07T15:48:09.254Z,9.56
2023-11-07T15:50:42.751Z,9.47
2023-11-07T15:53:14.887Z,9.42
2023-11-07T15:55:46.755Z,9.35
2023-11-07T15:58:18.519Z,9.28
2023-11-07T16:00:51.226Z,9.19
2023-11-07T16:03:23.128Z,9.12
2023-11-07T16:05:53.705Z,9.03
2023-11-07T16:08:27.029Z,8.99
2023-11-07T16:11:00.038Z,8.92
2023-11-07T16:13:31.813Z,8.86
2023-11-07T16:16:05.510Z,8.83
2023-11-07T16:18:37.377Z,8.86
2023-11-07T16:21:09.656Z,8.90
2023-11-07T16:23:44.053Z,8.92
2023-11-07T16:26:16.522Z,8.94
2023-11-07T16:28:48.353Z,8.96
2023-11-07T16:31:20.095Z,8.97
2023-11-07T16:33:52.099Z,8.97
2023-11-07T16:36:25.956Z,8.98
2023-11-07T16:38:58.463Z,9.00
2023-11-07T16:41:32.454Z,9.01
2023-11-07T16:44:04.255Z,9.04
2023-11-07T16:46:37.555Z,9.02
2023-11-07T16:49:09.699Z,9.00
2023-11-07T16:51:41.598Z,9.03
2023-11-07T16:54:13.419Z,9.03
2023-11-07T16:56:45.123Z,9.06
2023-11-07T16:59:18.146Z,9.07
2023-11-07T17:01:49.811Z,9.09
2023-11-07T17:04:21.694Z,9.09
2023-11-07T17:06:54.704Z,9.02
2023-11-07T17:09:26.659Z,9.05
2023-11-07T17:11:59.817Z,9.07
2023-11-07T17:14:31.671Z,9.02
2023-11-07T17:17:04.321Z,9.00
2023-11-07T17:19:36.377Z,8.99
2023-11-07T17:22:06.714Z,8.93
2023-11-07T17:24:39.314Z,8.89
2023-11-07T17:27:11.224Z,8.84
2023-11-07T17:29:43.054Z,8.76
2023-11-07T17:32:15.426Z,8.79
2023-11-07T17:34:47.392Z,8.81
2023-11-07T17:37:19.209Z,8.83
2023-11-07T17:39:50.996Z,8.87
2023-11-07T17:42:22.862Z,8.86
2023-11-07T17:44:54.641Z,8.82
2023-11-07T17:47:28.841Z,8.77
2023-11-07T17:50:01.057Z,8.77
2023-11-07T17:52:33.101Z,8.76
2023-11-07T17:55:05.271Z,8.67
2023-11-07T17:57:37.285Z,8.64
2023-11-07T18:00:08.431Z,8.63
2023-11-07T18:02:46.446Z,8.66
2023-11-07T18:05:18.456Z,8.60
2023-11-07T18:07:49.940Z,8.57
2023-11-07T18:10:22.810Z,8.55
2023-11-07T18:12:54.569Z,8.55
2023-11-07T18:15:26.360Z,8.55
2023-11-07T18:17:59.556Z,8.57
2023-11-07T18:20:31.450Z,8.58
2023-11-07T18:23:03.154Z,8.59
2023-11-07T18:25:34.889Z,8.60
2023-11-07T18:28:09.887Z,8.65
2023-11-07T18:30:44.556Z,8.68
2023-11-07T18:33:16.428Z,8.68
2023-11-07T18:35:48.196Z,8.65
2023-11-07T18:38:20.301Z,8.66
2023-11-07T18:40:53.307Z,8.62
2023-11-07T18:43:25.092Z,8.62
2023-11-07T18:45:58.416Z,8.68
2023-11-07T18:48:30.231Z,8.70
2023-11-07T18:51:02.485Z,8.68
2023-11-07T18:53:43.617Z,8.64
2023-11-07T18:56:17.885Z,8.66
2023-11-07T18:58:49.720Z,8.64
2023-11-07T19:01:23.170Z,8.63
2023-11-07T19:03:57.557Z,8.64
2023-11-07T19:06:29.846Z,8.62
2023-11-07T19:09:01.699Z,8.63
2023-11-07T19:11:34.686Z,8.60
2023-11-07T19:14:06.392Z,8.58
2023-11-07T19:16:38.713Z,8.58
2023-11-07T19:19:10.467Z,8.54
2023-11-07T19:21:42.330Z,8.51
2023-11-07T19:24:18.121Z,8.58
2023-11-07T19:26:50.515Z,8.62
2023-11-07T19:29:22.626Z,8.66
2023-11-07T19:31:55.364Z,8.67
2023-11-07T19:34:27.223Z,8.68
2023-11-07T19:36:59.734Z,8.64
2023-11-07T19:39:30.651Z,8.64
2023-11-07T19:42:05.206Z,8.67
2023-11-07T19:44:37.913Z,8.62
2023-11-07T19:47:09.957Z,8.59
2023-11-07T19:49:40.682Z,8.61
2023-11-07T19:52:11.263Z,8.62
2023-11-07T19:54:43.548Z,8.62
2023-11-07T19:57:16.126Z,8.64
2023-11-07T19:59:48.794Z,8.65
2023-11-07T20:02:23.869Z,8.61
2023-11-07T20:05:01.374Z,8.63
2023-11-07T20:07:43.677Z,8.60
2023-11-07T20:10:23.510Z,8.58
2023-11-07T20:12:55.309Z,8.60
2023-11-07T20:15:27.428Z,8.55
2023-11-07T20:17:57.699Z,8.52
2023-11-07T20:20:54.135Z,8.47
2023-11-07T20:23:30.758Z,8.43
2023-11-07T20:26:06.856Z,8.47
2023-11-07T20:28:39.580Z,8.50
2023-11-07T20:31:12.193Z,8.53
2023-11-07T20:33:49.508Z,8.46
2023-11-07T20:36:22.549Z,8.46
2023-11-07T20:39:00.411Z,8.42
2023-11-07T20:41:37.528Z,8.36
2023-11-07T20:44:09.760Z,8.32
2023-11-07T20:46:41.696Z,8.36
2023-11-07T20:49:14.166Z,8.37
2023-11-07T20:51:58.860Z,8.37
2023-11-07T20:54:31.490Z,8.39
2023-11-07T20:57:04.964Z,8.41
2023-11-07T20:59:41.019Z,8.38
2023-11-07T21:02:13.842Z,8.40
2023-11-07T21:04:50.212Z,8.37
2023-11-07T21:07:22.371Z,8.32
2023-11-07T21:09:52.999Z,8.34
2023-11-07T21:12:25.259Z,8.35
2023-11-07T21:14:58.170Z,8.35
2023-11-07T21:17:30.249Z,8.33
2023-11-07T21:20:02.694Z,8.32
2023-11-07T21:22:34.693Z,8.35
2023-11-07T21:25:07.600Z,8.36
2023-11-07T21:27:45.680Z,8.39
2023-11-07T21:30:18.732Z,8.40
2023-11-07T21:32:50.768Z,8.37
2023-11-07T21:35:23.585Z,8.40
2023-11-07T21:37:56.604Z,8.36
2023-11-07T21:40:28.977Z,8.39
2023-11-07T21:43:01.436Z,8.42
2023-11-07T21:45:33.566Z,8.43
2023-11-07T21:48:07.651Z,8.43
2023-11-07T21:50:40.118Z,8.42
2023-11-07T21:53:12.535Z,8.37
2023-11-07T21:55:44.509Z,8.35
2023-11-07T21:58:14.908Z,8.39
2023-11-07T22:00:46.909Z,8.37
2023-11-07T22:03:17.307Z,8.38
2023-11-07T22:05:49.434Z,8.36
2023-11-07T22:08:19.756Z,8.36
2023-11-07T22:10:52.232Z,8.35
2023-11-07T22:13:25.732Z,8.28
2023-11-07T22:15:57.990Z,8.28
2023-11-07T22:18:29.015Z,8.27
2023-11-07T22:21:01.723Z,8.24
2023-11-07T22:23:33.930Z,8.26
2023-11-07T22:26:06.048Z,8.25
2023-11-07T22:28:36.598Z,8.22
2023-11-07T22:31:08.528Z,8.26
2023-11-07T22:33:42.949Z,8.25
2023-11-07T22:36:14.893Z,8.29
2023-11-07T22:38:46.880Z,8.29
2023-11-07T22:41:17.637Z,8.24
2023-11-07T22:43:49.647Z,8.31
2023-11-07T22:46:22.050Z,8.33
2023-11-07T22:48:55.157Z,8.27
2023-11-07T22:51:27.902Z,8.24
2023-11-07T22:53:59.974Z,8.30
2023-11-07T22:56:31.949Z,8.32
2023-11-07T22:59:03.783Z,8.34
2023-11-07T23:01:35.564Z,8.28
2023-11-07T23:04:08.818Z,8.28
2023-11-07T23:06:41.303Z,8.30
2023-11-07T23:09:14.152Z,8.32
2023-11-07T23:11:46.582Z,8.34
2023-11-07T23:14:19.122Z,8.33
2023-11-07T23:16:52.480Z,8.33
2023-11-07T23:19:26.400Z,8.30
2023-11-07T23:21:58.319Z,8.32
2023-11-07T23:24:30.270Z,8.31
2023-11-07T23:27:02.369Z,8.33
2023-11-07T23:29:33.846Z,8.33
2023-11-07T23:32:07.790Z,8.33
2023-11-07T23:34:39.585Z,8.29
2023-11-07T23:37:14.446Z,8.32
2023-11-07T23:39:46.590Z,8.30
2023-11-07T23:42:20.194Z,8.29
2023-11-07T23:44:52.162Z,8.31
2023-11-07T23:47:24.049Z,8.32
2023-11-07T23:49:55.887Z,8.33
2023-11-07T23:52:27.616Z,8.29
2023-11-07T23:55:00.069Z,8.26
2023-11-07T23:57:32.104Z,8.26
